Terminal Aerodrome Forecast
Issued by NWS

Home | Current Version | Previous Version | Text Only | Print | Product List | Glossary On
Versions: 1 2 3 4 5 6 7 8 9 10 11 12 13 14 15 16
000
FTUS43 KFGF 271700
TAFTVF
TAF
KTVF 271725Z 2718/2818 16008KT P6SM OVC005
     FM271900 16010KT P6SM OVC008
     FM280300 15010KT 6SM BR OVC006
      AMD LTD TO CLD VIS AND WIND=

USA.gov is the U.S. government's official web portal to all federal, state and local government web resources and services.